Time;durP1;ratioP1;P1;durP2;ratioP2;P2;SDS_P1;SDS_P2;PMS_P1;PMS_P2;Temp;Humidity;BMP_temperature;BMP_pressure;BME280_temperature;BME280_humidity;BME280_pressure;Samples;Min_cycle;Max_cycle;Signal;HPM_P1;HPM_P2
2022/07/25 00:01:23;;;;;;;22.58;10.75;;;;;;;16.47;100.00;91160.25;5031394;28;20111;-65
2022/07/25 00:03:48;;;;;;;17.70;10.30;;;;;;;16.47;100.00;91146.81;5036292;28;20049;-66
2022/07/25 00:06:14;;;;;;;18.17;8.45;;;;;;;16.55;100.00;91144.34;5051125;28;20556;-66
2022/07/25 00:08:39;;;;;;;15.40;9.60;;;;;;;16.58;100.00;91141.00;5051245;28;20033;-66
2022/07/25 00:11:05;;;;;;;21.63;10.90;;;;;;;16.68;100.00;91132.47;5049949;28;20033;-65
2022/07/25 00:13:30;;;;;;;17.92;10.18;;;;;;;16.70;100.00;91136.38;5051237;28;20029;-66
2022/07/25 00:15:56;;;;;;;20.55;11.32;;;;;;;16.83;100.00;91121.00;5051279;28;20031;-66
2022/07/25 00:18:21;;;;;;;23.48;11.43;;;;;;;16.80;100.00;91108.25;5051220;28;20357;-66
2022/07/25 00:20:47;;;;;;;23.45;12.25;;;;;;;16.97;100.00;91121.41;5049833;28;20028;-66
2022/07/25 00:23:12;;;;;;;19.15;10.95;;;;;;;17.06;100.00;91122.06;5050950;28;20482;-66
2022/07/25 00:25:38;;;;;;;21.40;10.52;;;;;;;16.99;100.00;91115.69;5051112;28;20072;-65
2022/07/25 00:28:04;;;;;;;18.02;10.60;;;;;;;17.06;100.00;91113.22;5051147;28;20021;-66
2022/07/25 00:30:29;;;;;;;16.48;9.77;;;;;;;17.15;100.00;91115.72;5050895;28;20495;-66
2022/07/25 00:32:54;;;;;;;18.05;10.23;;;;;;;17.23;100.00;91102.16;5051122;28;20433;-66
2022/07/25 00:35:20;;;;;;;18.55;10.70;;;;;;;17.36;100.00;91097.47;5050535;28;20017;-65
2022/07/25 00:37:45;;;;;;;16.95;9.98;;;;;;;17.38;100.00;91105.19;5050922;28;20146;-66
2022/07/25 00:40:11;;;;;;;14.93;9.52;;;;;;;17.38;100.00;91110.59;5050846;28;20036;-66
2022/07/25 00:42:37;;;;;;;18.02;10.75;;;;;;;17.31;100.00;91111.94;5050887;28;20065;-66
2022/07/25 00:45:03;;;;;;;16.85;9.85;;;;;;;17.27;100.00;91115.69;5050847;28;20521;-65
2022/07/25 00:47:29;;;;;;;17.52;10.50;;;;;;;17.16;100.00;91125.34;5050812;28;20071;-65
2022/07/25 00:49:54;;;;;;;17.75;10.27;;;;;;;17.11;100.00;91120.22;5050776;28;20041;-65
2022/07/25 00:52:20;;;;;;;17.90;10.30;;;;;;;17.09;100.00;91119.81;5050757;28;20025;-65
2022/07/25 00:54:46;;;;;;;20.27;11.05;;;;;;;17.10;100.00;91121.38;5050659;28;20391;-65
2022/07/25 00:57:11;;;;;;;18.20;10.27;;;;;;;17.16;100.00;91133.41;5050634;28;20021;-65
2022/07/25 00:59:37;;;;;;;19.75;10.82;;;;;;;17.23;100.00;91142.47;5050621;28;20060;-65
2022/07/25 01:02:02;;;;;;;20.50;11.32;;;;;;;17.29;100.00;91138.41;5050704;28;20025;-65
2022/07/25 01:04:28;;;;;;;19.67;11.63;;;;;;;17.35;100.00;91141.59;5050183;28;20428;-65
2022/07/25 01:06:54;;;;;;;19.40;11.43;;;;;;;17.36;100.00;91143.19;5050649;28;20406;-65
2022/07/25 01:09:20;;;;;;;19.40;11.10;;;;;;;17.42;100.00;91133.75;5050507;28;20113;-64
2022/07/25 01:11:45;;;;;;;22.08;11.70;;;;;;;17.50;100.00;91130.09;5050551;28;20547;-65
2022/07/25 01:14:11;;;;;;;19.88;11.52;;;;;;;17.55;100.00;91121.00;5050596;28;20135;-64
2022/07/25 01:16:36;;;;;;;20.23;12.30;;;;;;;17.57;100.00;91126.81;5050572;28;20482;-66
2022/07/25 01:19:02;;;;;;;19.98;11.88;;;;;;;17.58;100.00;91121.09;5050522;28;20447;-66
2022/07/25 01:21:28;;;;;;;21.58;12.60;;;;;;;17.53;100.00;91124.06;5048995;28;20017;-66
2022/07/25 01:23:53;;;;;;;19.88;12.07;;;;;;;17.51;100.00;91109.34;5050349;28;20090;-66
2022/07/25 01:26:19;;;;;;;22.60;12.43;;;;;;;17.47;100.00;91114.66;5050487;28;20036;-66
2022/07/25 01:28:44;;;;;;;24.67;12.68;;;;;;;17.43;100.00;91104.94;5050433;28;20040;-66
2022/07/25 01:31:09;;;;;;;21.13;11.57;;;;;;;17.44;100.00;91109.19;5050149;28;20033;-66
2022/07/25 01:33:35;;;;;;;21.65;12.27;;;;;;;17.41;100.00;91109.88;5049001;28;20036;-66
2022/07/25 01:36:00;;;;;;;23.50;12.27;;;;;;;17.42;100.00;91108.75;5050110;28;20123;-66
2022/07/25 01:38:26;;;;;;;22.67;12.63;;;;;;;17.38;100.00;91107.91;5050542;28;20558;-65
2022/07/25 01:40:51;;;;;;;20.23;11.43;;;;;;;17.33;100.00;91108.91;5050202;28;20506;-66
2022/07/25 01:43:17;;;;;;;22.45;12.40;;;;;;;17.40;100.00;91105.63;5050322;28;20032;-66
2022/07/25 01:45:43;;;;;;;20.90;11.60;;;;;;;17.38;100.00;91103.28;5050258;28;20075;-66
2022/07/25 01:48:08;;;;;;;20.67;11.13;;;;;;;17.36;100.00;91097.47;5053631;28;20021;-66
2022/07/25 01:50:34;;;;;;;19.08;12.07;;;;;;;17.33;100.00;91092.78;5053952;28;20025;-66
2022/07/25 01:52:59;;;;;;;19.05;11.45;;;;;;;17.31;100.00;91101.19;5053941;28;20422;-66
2022/07/25 01:55:25;;;;;;;22.45;12.10;;;;;;;17.33;100.00;91104.31;5054024;28;20043;-66
2022/07/25 01:57:50;;;;;;;22.77;12.18;;;;;;;17.39;100.00;91104.84;5054029;28;20479;-65
2022/07/25 02:00:16;;;;;;;19.73;11.65;;;;;;;17.38;100.00;91106.00;5054145;28;20519;-65
2022/07/25 02:02:44;;;;;;;23.83;12.27;;;;;;;17.42;100.00;91100.69;5053791;28;20028;-66
2022/07/25 02:05:11;;;;;;;21.42;12.55;;;;;;;17.53;100.00;91107.91;5049077;28;20534;-65
2022/07/25 02:07:37;;;;;;;21.05;10.98;;;;;;;17.62;100.00;91108.50;5032525;28;20029;-65
2022/07/25 02:10:05;;;;;;;17.42;10.77;;;;;;;17.71;100.00;91113.75;5033867;28;20053;-64
2022/07/25 02:12:30;;;;;;;18.67;10.75;;;;;;;17.74;100.00;91123.03;5033772;28;20444;-64
2022/07/25 02:14:56;;;;;;;20.33;11.55;;;;;;;17.83;100.00;91115.56;5034086;28;20118;-65
2022/07/25 02:17:22;;;;;;;17.08;10.65;;;;;;;17.77;100.00;91109.66;5033789;28;20087;-65
2022/07/25 02:19:47;;;;;;;18.45;10.30;;;;;;;17.77;100.00;91101.59;5033592;28;20056;-65
2022/07/25 02:22:13;;;;;;;18.00;10.57;;;;;;;17.72;100.00;91093.00;5033827;28;20053;-65
2022/07/25 02:24:38;;;;;;;17.90;11.60;;;;;;;17.75;100.00;91097.69;5032459;28;20064;-65
2022/07/25 02:27:04;;;;;;;20.92;11.43;;;;;;;17.82;100.00;91105.94;5033642;28;20095;-65
2022/07/25 02:29:31;;;;;;;18.02;10.27;;;;;;;17.83;100.00;91113.69;5033484;28;20041;-65
2022/07/25 02:31:57;;;;;;;17.95;11.07;;;;;;;17.79;100.00;91120.09;5033540;28;20021;-65
2022/07/25 02:34:22;;;;;;;23.48;12.88;;;;;;;17.79;100.00;91109.31;5033498;28;20034;-65
2022/07/25 02:36:48;;;;;;;19.17;10.82;;;;;;;17.76;100.00;91110.03;5033469;28;20026;-65
2022/07/25 02:39:14;;;;;;;16.30;10.13;;;;;;;17.73;100.00;91094.56;5031955;28;20052;-64
2022/07/25 02:41:39;;;;;;;17.65;10.73;;;;;;;17.67;100.00;91094.00;5031848;28;20120;-65
2022/07/25 02:44:05;;;;;;;15.90;10.18;;;;;;;17.59;100.00;91093.06;5033169;28;20033;-66
2022/07/25 02:46:31;;;;;;;17.40;11.10;;;;;;;17.49;100.00;91085.50;5033177;28;20108;-66
2022/07/25 02:48:57;;;;;;;18.27;10.50;;;;;;;17.46;100.00;91088.09;5033233;28;20033;-66
2022/07/25 02:51:23;;;;;;;19.70;11.32;;;;;;;17.42;100.00;91106.06;5033105;28;20570;-66
2022/07/25 02:53:49;;;;;;;21.17;12.05;;;;;;;17.38;100.00;91108.69;5033052;28;20108;-65
2022/07/25 02:56:14;;;;;;;19.92;11.15;;;;;;;17.40;100.00;91102.94;5032866;28;20025;-65
2022/07/25 02:58:39;;;;;;;19.13;11.77;;;;;;;17.42;100.00;91100.69;5032602;28;20033;-65
2022/07/25 03:01:05;;;;;;;22.02;11.80;;;;;;;17.41;100.00;91104.50;5032828;28;20113;-65
2022/07/25 03:03:33;;;;;;;20.85;11.70;;;;;;;17.42;100.00;91101.47;5032683;28;20341;-64
2022/07/25 03:05:58;;;;;;;20.55;11.32;;;;;;;17.41;100.00;91099.13;5032643;28;20499;-64
2022/07/25 03:08:24;;;;;;;18.25;11.15;;;;;;;17.53;100.00;91099.84;5032617;28;20136;-65
2022/07/25 03:10:49;;;;;;;18.80;11.40;;;;;;;17.57;100.00;91098.00;5032584;28;20060;-65
2022/07/25 03:13:15;;;;;;;23.25;12.32;;;;;;;17.57;100.00;91098.00;5032819;28;20029;-65
2022/07/25 03:15:40;;;;;;;20.20;11.48;;;;;;;17.56;100.00;91107.22;5032720;28;20025;-65
2022/07/25 03:18:06;;;;;;;21.00;11.45;;;;;;;17.55;100.00;91105.66;5032617;28;20030;-65
2022/07/25 03:20:32;;;;;;;19.00;10.80;;;;;;;17.61;100.00;91108.84;5032474;28;20030;-65
2022/07/25 03:22:57;;;;;;;18.65;11.60;;;;;;;17.53;100.00;91113.28;5032514;28;20022;-65
2022/07/25 03:25:23;;;;;;;18.95;11.18;;;;;;;17.51;100.00;91109.34;5032404;28;20056;-65
2022/07/25 03:27:49;;;;;;;18.50;10.65;;;;;;;17.51;100.00;91104.75;5032663;28;20068;-65
2022/07/25 03:30:15;;;;;;;21.00;12.02;;;;;;;17.42;100.00;91106.84;5032386;28;20166;-65
2022/07/25 03:32:40;;;;;;;19.83;11.65;;;;;;;17.41;100.00;91110.66;5032341;28;20108;-65
2022/07/25 03:35:06;;;;;;;20.20;12.13;;;;;;;17.42;100.00;91112.22;5032272;28;20545;-64
2022/07/25 03:37:32;;;;;;;20.90;12.20;;;;;;;17.49;100.00;91119.69;5032259;28;20483;-64
2022/07/25 03:39:57;;;;;;;19.17;11.20;;;;;;;17.58;100.00;91109.56;5032070;28;20159;-65
2022/07/25 03:42:23;;;;;;;20.38;12.05;;;;;;;17.56;100.00;91117.97;5032280;28;20514;-65
2022/07/25 03:44:48;;;;;;;17.75;11.35;;;;;;;17.59;100.00;91114.59;5032256;28;20499;-65
2022/07/25 03:47:14;;;;;;;20.40;11.27;;;;;;;17.59;100.00;91111.13;5032162;28;20030;-65
2022/07/25 03:49:39;;;;;;;20.50;11.80;;;;;;;17.62;100.00;91119.25;5031770;28;20033;-65
2022/07/25 03:52:05;;;;;;;18.83;10.52;;;;;;;17.65;100.00;91126.63;5031789;28;20156;-65
2022/07/25 03:54:30;;;;;;;22.98;12.52;;;;;;;17.69;100.00;91126.00;5031805;28;20017;-65
2022/07/25 03:56:56;;;;;;;21.58;11.85;;;;;;;17.72;100.00;91109.16;5031784;28;20487;-65
2022/07/25 03:59:21;;;;;;;19.67;11.68;;;;;;;17.77;100.00;91116.97;5031644;28;20547;-65
2022/07/25 04:01:48;;;;;;;24.23;12.15;;;;;;;17.83;100.00;91120.94;5031708;28;20031;-65
2022/07/25 04:04:14;;;;;;;16.88;11.02;;;;;;;17.90;100.00;91105.75;5031473;28;20080;-65
2022/07/25 04:06:40;;;;;;;16.65;10.10;;;;;;;17.85;100.00;91116.81;5031657;28;20108;-65
2022/07/25 04:09:07;;;;;;;18.92;11.18;;;;;;;17.82;100.00;91114.78;5030902;28;20104;-66
2022/07/25 04:11:34;;;;;;;21.08;11.80;;;;;;;17.80;100.00;91111.66;5031378;28;20041;-66
2022/07/25 04:14:01;;;;;;;22.70;12.60;;;;;;;17.83;100.00;91115.56;5031557;28;20028;-65
2022/07/25 04:16:27;;;;;;;20.58;12.48;;;;;;;17.86;100.00;91115.66;5031481;28;20112;-65
2022/07/25 04:18:53;;;;;;;19.58;12.00;;;;;;;17.85;100.00;91114.09;5031496;28;20048;-65
2022/07/25 04:21:19;;;;;;;19.02;11.88;;;;;;;17.92;100.00;91110.78;5031065;28;20037;-65
2022/07/25 04:23:44;;;;;;;24.15;12.90;;;;;;;18.03;100.00;91117.22;5031130;28;20036;-66
2022/07/25 04:26:10;;;;;;;21.73;12.25;;;;;;;18.07;100.00;91115.38;5031279;28;20040;-65
2022/07/25 04:28:35;;;;;;;20.73;12.38;;;;;;;18.16;100.00;91116.00;5031165;28;20073;-66
2022/07/25 04:31:01;;;;;;;25.42;12.55;;;;;;;18.24;100.00;91125.78;5031063;28;20029;-66
2022/07/25 04:33:26;;;;;;;21.48;12.57;;;;;;;18.29;100.00;91121.25;5031017;28;20051;-66
2022/07/25 04:35:52;;;;;;;19.45;11.55;;;;;;;18.39;100.00;91118.03;5031055;28;20204;-65
2022/07/25 04:38:17;;;;;;;19.25;12.32;;;;;;;18.45;100.00;91109.31;5031057;28;20056;-66
2022/07/25 04:40:43;;;;;;;19.70;10.98;;;;;;;18.37;100.00;91113.00;5031058;28;20410;-65
2022/07/25 04:43:09;;;;;;;20.10;11.57;;;;;;;18.47;100.00;91119.75;5031138;28;20029;-65
2022/07/25 04:45:35;;;;;;;16.45;11.77;;;;;;;18.58;100.00;91111.88;5030962;28;20522;-65
2022/07/25 04:48:01;;;;;;;20.75;12.70;;;;;;;18.69;100.00;91107.53;5031122;28;20021;-65
2022/07/25 04:50:27;;;;;;;16.58;10.45;;;;;;;18.74;100.00;91110.72;5030920;28;20103;-65
2022/07/25 04:52:53;;;;;;;19.35;11.85;;;;;;;18.92;100.00;91111.09;5030963;28;20034;-65
2022/07/25 04:55:18;;;;;;;19.40;12.88;;;;;;;18.90;100.00;91115.28;5031220;28;20025;-65
2022/07/25 04:57:45;;;;;;;23.02;11.98;;;;;;;19.02;100.00;91109.75;5030703;28;20036;-66
2022/07/25 05:00:12;;;;;;;19.73;10.93;;;;;;;19.25;100.00;91123.28;5030509;28;20116;-66
2022/07/25 05:02:37;;;;;;;21.38;12.27;;;;;;;19.39;100.00;91118.16;5030579;28;20025;-65
2022/07/25 05:05:03;;;;;;;30.38;18.38;;;;;;;19.65;100.00;91112.09;5030637;28;20041;-65
2022/07/25 05:07:29;;;;;;;23.30;13.63;;;;;;;19.79;100.00;91104.25;5030759;28;20030;-65
2022/07/25 05:09:54;;;;;;;17.50;10.55;;;;;;;20.04;100.00;91110.84;5030677;28;20090;-65
2022/07/25 05:12:20;;;;;;;15.02;9.60;;;;;;;20.10;100.00;91111.31;5030662;28;20113;-64
2022/07/25 05:14:45;;;;;;;15.50;9.45;;;;;;;20.20;100.00;91118.81;5030734;28;20033;-64
2022/07/25 05:17:11;;;;;;;15.40;9.93;;;;;;;20.24;100.00;91116.16;5030399;28;20100;-64
2022/07/25 05:19:36;;;;;;;16.42;9.68;;;;;;;20.25;100.00;91109.63;5030560;28;20264;-65
2022/07/25 05:22:03;;;;;;;16.27;10.45;;;;;;;20.21;100.00;91111.50;5033666;28;20061;-65
2022/07/25 05:24:32;;;;;;;16.00;10.40;;;;;;;20.35;100.00;91103.56;5034555;28;20112;-65
2022/07/25 05:26:58;;;;;;;14.18;9.32;;;;;;;20.73;100.00;91118.06;5034609;28;20033;-65
2022/07/25 05:29:23;;;;;;;16.35;10.68;;;;;;;20.91;100.00;91113.66;5034490;28;20060;-66
2022/07/25 05:31:48;;;;;;;17.48;10.65;;;;;;;20.96;100.00;91105.22;5034480;28;20091;-65
2022/07/25 05:34:14;;;;;;;16.75;10.77;;;;;;;21.31;100.00;91104.13;5034553;28;20025;-65
2022/07/25 05:36:39;;;;;;;13.32;9.25;;;;;;;23.54;100.00;91102.28;5034278;28;20033;-66
2022/07/25 05:39:05;;;;;;;14.82;9.77;;;;;;;26.02;100.00;91107.00;5034235;28;20096;-65
2022/07/25 05:41:31;;;;;;;11.60;8.77;;;;;;;27.60;80.59;91110.69;5034267;28;20045;-65
2022/07/25 05:43:56;;;;;;;12.07;8.55;;;;;;;28.26;73.69;91102.84;5034059;28;20041;-65
2022/07/25 05:46:21;;;;;;;10.68;8.43;;;;;;;29.81;66.44;91105.22;5034295;28;20450;-65
2022/07/25 05:48:47;;;;;;;11.15;7.95;;;;;;;31.61;58.62;91095.09;5030358;28;20033;-63
2022/07/25 05:51:12;;;;;;;10.85;8.65;;;;;;;32.30;55.29;91101.78;5014309;28;20026;-63
2022/07/25 05:53:38;;;;;;;11.27;7.82;;;;;;;33.24;53.42;91103.16;5013207;28;20072;-65
2022/07/25 05:56:04;;;;;;;10.20;7.45;;;;;;;32.48;50.97;91104.75;5014508;28;20415;-63
2022/07/25 05:58:29;;;;;;;8.73;7.32;;;;;;;33.13;50.94;91099.97;5014363;28;20026;-63
2022/07/25 06:00:55;;;;;;;10.63;7.82;;;;;;;34.15;49.00;91100.38;5014223;28;20030;-64
2022/07/25 06:03:21;;;;;;;8.23;6.93;;;;;;;35.18;46.72;91099.13;5014084;28;20025;-63
2022/07/25 06:05:46;;;;;;;7.72;6.55;;;;;;;35.20;45.10;91107.00;5014175;28;20030;-64
2022/07/25 06:08:13;;;;;;;7.90;6.47;;;;;;;35.36;44.39;91106.75;5014355;28;20412;-64
2022/07/25 06:10:39;;;;;;;7.78;6.07;;;;;;;35.87;41.91;91101.41;5014216;28;20129;-64
2022/07/25 06:13:05;;;;;;;7.43;6.10;;;;;;;36.35;42.33;91093.34;5014210;28;20077;-64
2022/07/25 06:15:30;;;;;;;8.18;6.03;;;;;;;37.55;40.65;91088.78;5014223;28;20057;-64
2022/07/25 06:17:56;;;;;;;5.65;5.15;;;;;;;37.76;39.32;91089.75;5014142;28;20022;-64
2022/07/25 06:20:21;;;;;;;5.88;5.03;;;;;;;38.84;37.29;91099.53;5014015;28;20069;-64
2022/07/25 06:22:47;;;;;;;5.85;5.22;;;;;;;38.11;37.38;91089.88;5014014;28;20033;-65
2022/07/25 06:25:12;;;;;;;7.07;5.15;;;;;;;40.01;34.53;91098.38;5013983;28;20041;-64
2022/07/25 06:27:38;;;;;;;4.90;4.30;;;;;;;40.59;33.93;91087.31;5014238;28;20026;-65
2022/07/25 06:30:05;;;;;;;5.97;4.70;;;;;;;40.49;33.73;91095.09;5013779;28;20392;-65
2022/07/25 06:32:30;;;;;;;5.53;4.50;;;;;;;40.46;33.18;91090.50;5008467;28;20030;-68
2022/07/25 06:34:56;;;;;;;530.40;278.00;;;;;;;40.78;32.83;91091.28;5014146;28;20034;-66
2022/07/25 06:37:21;;;;;;;20.02;14.73;;;;;;;41.42;31.07;91092.03;5013699;28;20088;-66
2022/07/25 06:39:47;;;;;;;7.63;4.70;;;;;;;41.42;31.34;91095.59;5013411;28;20522;-66
2022/07/25 06:42:12;;;;;;;6.60;4.68;;;;;;;40.92;32.04;91089.66;5013450;28;20468;-65
2022/07/25 06:44:38;;;;;;;9.52;7.40;;;;;;;41.72;30.78;91089.69;5013347;28;20021;-67
2022/07/25 06:47:04;;;;;;;6.70;5.40;;;;;;;42.69;29.34;91096.59;5013177;28;20482;-65
2022/07/25 06:49:30;;;;;;;6.28;4.45;;;;;;;40.14;31.47;91086.09;5012916;28;20113;-67
2022/07/25 06:51:56;;;;;;;156.88;108.15;;;;;;;38.17;35.11;91084.44;5013301;28;20026;-66
2022/07/25 06:54:21;;;;;;;6.05;5.18;;;;;;;38.33;34.74;91081.19;5015060;28;20022;-69
2022/07/25 06:56:47;;;;;;;78.63;62.83;;;;;;;38.03;34.09;91081.19;5030483;28;20087;-69
2022/07/25 06:59:12;;;;;;;5.97;4.82;;;;;;;37.58;37.02;91076.75;5031680;28;20021;-72
2022/07/25 07:01:38;;;;;;;14.07;11.65;;;;;;;39.64;34.75;91083.50;5032112;28;20040;-69
2022/07/25 07:04:03;;;;;;;6.82;5.43;;;;;;;37.62;36.83;91080.09;5030862;28;20495;-69
2022/07/25 07:06:29;;;;;;;6.35;5.57;;;;;;;37.93;37.19;91076.94;5031372;28;20022;-66
2022/07/25 07:08:55;;;;;;;7.65;6.00;;;;;;;36.23;37.68;91085.94;5031260;28;20631;-65
2022/07/25 07:11:20;;;;;;;10.63;5.40;;;;;;;37.12;36.72;91082.56;5021661;28;20411;-65
2022/07/25 07:13:46;;;;;;;5.05;4.55;;;;;;;37.93;35.99;91082.50;5014354;28;20034;-66
2022/07/25 07:16:12;;;;;;;7.82;5.25;;;;;;;37.41;37.46;91075.66;5019895;28;20463;-66
2022/07/25 07:18:37;;;;;;;6.82;4.70;;;;;;;37.82;36.00;91075.97;5021829;28;20044;-67
2022/07/25 07:21:04;;;;;;;6.28;5.55;;;;;;;38.34;36.16;91083.50;5017252;28;20429;-66
2022/07/25 07:23:30;;;;;;;10.20;7.30;;;;;;;37.22;36.60;91074.19;5012733;28;20033;-67
2022/07/25 07:25:56;;;;;;;6.13;5.53;;;;;;;36.76;36.50;91074.38;5012522;28;20026;-67
2022/07/25 07:28:22;;;;;;;9.70;6.80;;;;;;;35.14;39.08;91087.44;5009485;28;20033;-66
2022/07/25 07:30:47;;;;;;;6.75;5.45;;;;;;;36.97;37.40;91078.97;5012452;28;20060;-66
2022/07/25 07:33:13;;;;;;;8.00;5.28;;;;;;;38.09;35.59;91077.72;5012152;28;20030;-66
2022/07/25 07:35:39;;;;;;;9.57;5.97;;;;;;;38.84;35.49;91075.25;5012584;28;20110;-68
2022/07/25 07:38:05;;;;;;;11.57;5.50;;;;;;;38.17;35.25;91079.63;5012490;28;20026;-67
2022/07/25 07:40:30;;;;;;;8.45;6.22;;;;;;;35.27;39.95;91065.97;5012190;28;20034;-68
2022/07/25 07:42:59;;;;;;;15.27;9.57;;;;;;;35.33;40.05;91077.94;5012376;28;20030;-68
2022/07/25 07:45:26;;;;;;;5.28;4.68;;;;;;;36.05;38.50;91080.44;5011175;28;20033;-66
2022/07/25 07:47:53;;;;;;;7.63;5.70;;;;;;;34.79;39.34;91079.34;5011788;28;20029;-67
2022/07/25 07:50:25;;;;;;;6.80;5.45;;;;;;;31.86;44.71;91075.94;5012175;28;20121;-68
2022/07/25 07:52:52;;;;;;;8.17;6.87;;;;;;;31.13;47.47;91080.25;5011858;28;20022;-65
2022/07/25 07:58:02;;;;;;;14.90;8.43;;;;;;;28.81;51.04;91073.41;5022673;28;20098;-66
2022/07/25 08:00:29;;;;;;;19.33;12.18;;;;;;;28.24;54.18;91077.03;5024426;28;20108;-65
2022/07/25 08:02:57;;;;;;;7.15;6.25;;;;;;;33.67;43.60;91080.41;5019824;28;20135;-66
2022/07/25 08:05:25;;;;;;;7.97;5.65;;;;;;;35.67;40.29;91081.69;5029950;28;20080;-66
2022/07/25 08:07:52;;;;;;;9.43;5.13;;;;;;;38.20;35.78;91078.72;5010438;28;20507;-67
2022/07/25 08:10:26;;;;;;;5.80;4.78;;;;;;;39.08;34.08;91083.47;5027186;28;20036;-69
2022/07/25 08:12:52;;;;;;;6.13;4.85;;;;;;;39.00;34.60;91087.13;5030359;28;20041;-71
2022/07/25 08:15:18;;;;;;;6.10;4.72;;;;;;;38.14;36.20;91079.81;5031559;28;20526;-70
2022/07/25 08:17:52;;;;;;;9.45;8.43;;;;;;;37.12;37.79;91081.81;5031026;28;20112;-70
2022/07/25 08:20:21;;;;;;;8.45;6.32;;;;;;;38.36;33.50;91077.47;5031414;28;20034;-70
2022/07/25 08:22:48;;;;;;;5.93;4.63;;;;;;;35.44;37.62;91069.22;5031466;28;20109;-70
2022/07/25 08:25:18;;;;;;;5.93;4.95;;;;;;;37.30;35.88;91072.63;5031389;28;20384;-70
2022/07/25 08:27:44;;;;;;;8.55;5.20;;;;;;;39.72;33.01;91073.44;5031272;28;20483;-70
2022/07/25 08:30:11;;;;;;;7.93;5.82;;;;;;;35.19;38.19;91064.75;5031313;28;20033;-68
2022/07/25 08:33:02;;;;;;;7.72;5.50;;;;;;;34.62;39.27;91066.25;5030093;28;20064;-69
2022/07/25 08:35:28;;;;;;;6.35;5.32;;;;;;;36.55;36.61;91065.09;5031275;28;20092;-68
2022/07/25 08:37:54;;;;;;;6.22;5.03;;;;;;;34.70;39.52;91073.78;5031179;28;20029;-68
2022/07/25 08:40:22;;;;;;;8.63;5.72;;;;;;;34.00;39.60;91080.03;5030950;28;20476;-67
2022/07/25 08:42:49;;;;;;;5.97;4.70;;;;;;;35.00;37.99;91071.44;5031431;28;20108;-67
2022/07/25 08:45:18;;;;;;;9.98;5.78;;;;;;;34.24;39.63;91073.59;5030962;28;20028;-67
2022/07/25 08:47:45;;;;;;;12.13;8.95;;;;;;;36.54;36.31;91069.88;5030451;28;20476;-67
2022/07/25 08:50:13;;;;;;;7.47;5.47;;;;;;;38.40;34.06;91069.72;5030927;28;20056;-67
2022/07/25 08:52:39;;;;;;;5.65;4.50;;;;;;;40.31;30.77;91068.28;5031243;28;20061;-67
2022/07/25 08:55:08;;;;;;;6.00;4.57;;;;;;;40.90;31.20;91070.63;5030658;28;20026;-67
2022/07/25 08:57:35;;;;;;;6.18;4.80;;;;;;;43.81;28.52;91074.09;5031109;28;20034;-67
2022/07/25 09:00:03;;;;;;;5.60;4.55;;;;;;;41.58;29.11;91069.78;5030786;28;20029;-66
2022/07/25 09:02:28;;;;;;;4.68;4.13;;;;;;;38.66;32.67;91067.13;5030406;28;20076;-66
2022/07/25 09:04:56;;;;;;;4.90;4.40;;;;;;;38.58;31.57;91066.72;5029203;28;20073;-67
2022/07/25 09:07:38;;;;;;;4.45;4.03;;;;;;;36.69;34.04;91061.66;5030967;28;20072;-67
2022/07/25 09:10:20;;;;;;;5.80;5.03;;;;;;;34.43;38.10;91048.84;5030544;28;20036;-67
2022/07/25 09:12:59;;;;;;;12.13;7.80;;;;;;;32.17;41.27;91051.41;5030834;28;20032;-67
2022/07/25 09:15:33;;;;;;;6.93;5.95;;;;;;;34.39;36.47;91051.72;5030786;28;20053;-67
2022/07/25 09:18:07;;;;;;;7.28;5.47;;;;;;;36.30;33.72;91042.06;5030218;28;20115;-67
2022/07/25 09:20:43;;;;;;;7.25;5.18;;;;;;;39.28;30.38;91057.66;5030429;28;20404;-67
2022/07/25 09:23:14;;;;;;;3.70;3.40;;;;;;;38.04;31.46;91043.06;5030577;28;20060;-67
2022/07/25 09:25:40;;;;;;;9.05;4.20;;;;;;;36.39;32.61;91049.59;5030576;28;20033;-67
2022/07/25 09:28:24;;;;;;;9.23;3.90;;;;;;;36.04;32.90;91029.06;5030653;28;20083;-67
2022/07/25 09:30:54;;;;;;;3.80;3.42;;;;;;;38.95;31.74;91044.81;5030515;28;20239;-67
2022/07/25 09:33:22;;;;;;;4.05;3.38;;;;;;;40.13;29.12;91051.13;5030146;28;20033;-67
2022/07/25 09:35:47;;;;;;;4.30;3.90;;;;;;;40.19;29.88;91038.00;5030500;28;20108;-67
2022/07/25 09:38:14;;;;;;;5.70;3.88;;;;;;;41.25;27.46;91048.03;5030475;28;20108;-68
2022/07/25 09:40:41;;;;;;;6.25;4.60;;;;;;;41.55;27.22;91036.50;5030585;28;20033;-67
2022/07/25 09:43:08;;;;;;;4.97;4.47;;;;;;;39.32;30.15;91038.78;5030481;28;20022;-67
2022/07/25 09:45:33;;;;;;;5.35;3.47;;;;;;;37.79;30.32;91041.56;5030695;28;20026;-67
2022/07/25 09:48:01;;;;;;;5.13;4.07;;;;;;;34.15;34.63;91025.81;5029884;28;20039;-67
2022/07/25 09:50:30;;;;;;;4.53;3.85;;;;;;;34.40;35.67;91031.19;5030261;28;20037;-67
2022/07/25 09:53:00;;;;;;;4.30;3.90;;;;;;;35.04;34.58;91022.31;5030290;28;20171;-67
2022/07/25 09:55:29;;;;;;;4.72;3.83;;;;;;;36.58;34.73;91028.13;5030264;28;20112;-67
2022/07/25 09:57:55;;;;;;;4.32;3.50;;;;;;;36.71;32.40;91019.59;5030313;28;20037;-67
2022/07/25 10:00:24;;;;;;;4.43;3.50;;;;;;;36.09;31.36;91020.13;5030226;28;20033;-66
2022/07/25 10:03:05;;;;;;;3.65;2.97;;;;;;;38.59;29.62;91026.53;5029869;28;20029;-67
2022/07/25 10:05:38;;;;;;;8.43;5.20;;;;;;;40.04;28.44;91026.97;5030038;28;20054;-68
2022/07/25 10:08:06;;;;;;;5.18;3.53;;;;;;;40.20;28.62;91031.16;5030553;28;20422;-68
2022/07/25 10:10:37;;;;;;;5.07;3.90;;;;;;;40.03;29.06;91028.22;5034090;28;20072;-68
2022/07/25 10:13:06;;;;;;;4.05;3.65;;;;;;;32.65;34.40;91013.72;5033618;28;20396;-67
2022/07/25 10:15:44;;;;;;;4.03;3.58;;;;;;;35.39;33.17;91020.06;5033802;28;20037;-68
2022/07/25 10:18:10;;;;;;;3.85;3.15;;;;;;;36.99;30.31;91012.69;5033245;28;20049;-68
2022/07/25 10:20:36;;;;;;;4.18;3.47;;;;;;;38.64;28.72;91019.56;5033603;28;20396;-68
2022/07/25 10:23:02;;;;;;;5.20;3.80;;;;;;;38.99;27.50;91027.16;5033588;28;20541;-68
2022/07/25 10:25:28;;;;;;;2.97;2.67;;;;;;;40.50;26.68;91010.16;5033647;28;20076;-68
2022/07/25 10:27:59;;;;;;;4.70;3.78;;;;;;;41.22;27.27;91014.72;5033644;28;20153;-68
2022/07/25 10:30:32;;;;;;;6.15;3.70;;;;;;;40.96;27.08;91003.66;5033413;28;20079;-68
2022/07/25 10:33:03;;;;;;;5.80;4.68;;;;;;;40.94;27.84;91020.16;5033168;28;20073;-68
2022/07/25 10:35:29;;;;;;;4.65;3.97;;;;;;;39.94;29.65;91012.41;5033541;28;20518;-68
2022/07/25 10:37:57;;;;;;;5.20;4.38;;;;;;;37.91;32.64;91009.22;5033421;28;20045;-68
2022/07/25 10:40:33;;;;;;;8.23;4.45;;;;;;;36.99;31.94;91001.59;5033114;28;20048;-69
2022/07/25 10:43:19;;;;;;;5.47;4.28;;;;;;;36.60;32.25;90995.91;5033615;28;20045;-69
2022/07/25 10:45:50;;;;;;;4.82;4.20;;;;;;;34.60;36.04;90991.34;5032825;28;20033;-67
2022/07/25 10:48:21;;;;;;;4.13;3.70;;;;;;;33.28;36.22;90996.25;5033248;28;20048;-68
2022/07/25 10:51:12;;;;;;;5.47;4.45;;;;;;;34.98;34.53;90988.94;5033129;28;20033;-67
2022/07/25 10:53:47;;;;;;;4.43;4.03;;;;;;;34.44;35.68;90984.06;5031197;28;20060;-70
2022/07/25 10:56:14;;;;;;;4.43;4.03;;;;;;;36.49;34.36;90989.38;5033120;28;20080;-67
2022/07/25 10:58:48;;;;;;;7.47;4.15;;;;;;;37.79;31.57;90990.81;5032921;28;20422;-68
2022/07/25 11:01:19;;;;;;;5.05;4.32;;;;;;;39.97;28.70;90980.03;5032665;28;20072;-68
2022/07/25 11:03:44;;;;;;;4.90;4.15;;;;;;;41.10;28.29;90983.19;5033016;28;20051;-68
2022/07/25 11:06:12;;;;;;;5.07;3.78;;;;;;;39.83;30.24;90984.44;5032607;28;20075;-68
2022/07/25 11:08:38;;;;;;;4.72;3.90;;;;;;;38.04;30.66;90981.94;5032767;28;20093;-68
2022/07/25 11:11:03;;;;;;;4.88;4.38;;;;;;;35.03;32.79;90966.25;5032716;28;20114;-67
2022/07/25 11:13:29;;;;;;;3.70;3.40;;;;;;;34.84;33.53;90973.69;5032734;28;20029;-67
2022/07/25 11:15:56;;;;;;;4.18;3.78;;;;;;;36.89;31.88;90955.72;5032172;28;20389;-67
2022/07/25 11:18:33;;;;;;;3.80;3.40;;;;;;;38.32;29.58;90974.81;5032379;28;20103;-66
2022/07/25 11:21:01;;;;;;;6.10;4.32;;;;;;;39.48;28.39;90962.28;5032649;28;20037;-67
2022/07/25 11:23:27;;;;;;;5.22;4.13;;;;;;;34.88;35.51;90970.06;5032527;28;20037;-65